Bavaro, Dominican Republic
Current Conditions -  °F | °C
As of 1:00 PM on Monday 20 Oct 2014 (Local Time) from MDPC Reporting Station
Broken Clouds Broken Clouds  
Wind Chill: 31°   Ceiling: 30000
Heat Index: 36°   Visibility: 6mi
Dew Point: 24°   Wind: 8mph
Humidity: 66%   Direction: 100°E
Pressure: 29.94"   Gusts: NA
Location:  18.72°N, 68.45°W
Report Text: MDPC 201700Z 10007KT 9999 SCT022 BKN300 31/24 Q1014
Loading
Personal Weather Stations






























Interactive Weather Map
Tropical Storm Tracking
New forecast layout! Learn more

10-Day Weather Forecast

Advertisements
Track Severe Weather on mobile